Culpeper, Virginia
Current Conditions -  °F | °C
As of 10:55 PM on Tuesday 27 Jan 2015 (Local Time) from KOMH Reporting Station
Broken Clouds Broken Clouds  
Wind Chill: 32°   Ceiling: 7000
Heat Index: 32°   Visibility: 10mi
Dew Point: 21°   Wind: 0mph
Humidity: 64%   Direction: NA
Pressure: 29.96"   Gusts: NA
Location:  38.47°N, 78°W
Report Text: KOMH 280355Z AUTO 00000KT 10SM BKN070 00/M06 A2996 RMK AO2
Loading
Personal Weather Stations






























Interactive Weather Map New forecast layout! Learn more

10-Day Weather Forecast

Advertisements
Track Severe Weather on mobile